Time;durP1;ratioP1;P1;durP2;ratioP2;P2;SDS_P1;SDS_P2;PMS_P1;PMS_P2;Temp;Humidity;BMP_temperature;BMP_pressure;BME280_temperature;BME280_humidity;BME280_pressure;Samples;Min_cycle;Max_cycle;Signal;HPM_P1;HPM_P2
2022/09/19 00:01:26;;;;;;;;;;;13.60;99.90;;;;;;5072880;28;19912;-76
2022/09/19 00:04:02;;;;;;;;;;;13.50;99.90;;;;;;5074186;28;19916;-76
2022/09/19 00:06:28;;;;;;;;;;;13.40;99.90;;;;;;5074321;28;19915;-74
2022/09/19 00:08:55;;;;;;;;;;;13.10;99.90;;;;;;5074188;28;19908;-75
2022/09/19 00:11:21;;;;;;;;;;;13.10;99.90;;;;;;5074165;28;19908;-77
2022/09/19 00:13:48;;;;;;;;;;;13.10;99.90;;;;;;5074284;28;19915;-75
2022/09/19 00:16:17;;;;;;;;;;;13.10;99.90;;;;;;5074371;28;19954;-75
2022/09/19 00:18:43;;;;;;;;;;;13.10;99.90;;;;;;5073960;28;20004;-76
2022/09/19 00:21:09;;;;;;;;;;;12.80;99.90;;;;;;5073841;28;20007;-76
2022/09/19 00:26:20;;;;;;;;;;;13.00;99.90;;;;;;5073831;28;19954;-74
2022/09/19 00:28:46;;;;;;;;;;;13.20;99.90;;;;;;5073853;28;19999;-75
2022/09/19 00:31:17;;;;;;;;;;;13.20;99.90;;;;;;5074032;28;20398;-76
2022/09/19 00:33:44;;;;;;;;;;;13.10;99.90;;;;;;5073755;28;20379;-74
2022/09/19 00:36:10;;;;;;;;;;;13.20;99.90;;;;;;5073737;28;20357;-77
2022/09/19 00:38:36;;;;;;;;;;;13.30;99.90;;;;;;5073889;28;19909;-75
2022/09/19 00:41:02;;;;;;;;;;;13.30;99.90;;;;;;5073673;28;20003;-75
2022/09/19 00:43:46;;;;;;;;;;;13.30;99.90;;;;;;5073801;28;19910;-76
2022/09/19 00:46:12;;;;;;;;;;;13.30;99.90;;;;;;5073658;28;20265;-76
2022/09/19 00:48:41;;;;;;;;;;;13.20;99.90;;;;;;5073492;28;19927;-76
2022/09/19 00:51:10;;;;;;;;;;;13.20;99.90;;;;;;5072341;28;19915;-76
2022/09/19 00:53:36;;;;;;;;;;;13.10;99.90;;;;;;5074157;28;20323;-76
2022/09/19 00:56:03;;;;;;;;;;;13.10;99.90;;;;;;5076030;28;19966;-75
2022/09/19 00:58:30;;;;;;;;;;;12.90;99.90;;;;;;5077844;28;19916;-76
2022/09/19 01:00:57;;;;;;;;;;;12.80;99.90;;;;;;5077794;28;19912;-76
2022/09/19 01:03:24;;;;;;;;;;;12.80;99.90;;;;;;5077666;28;20392;-77
2022/09/19 01:06:10;;;;;;;;;;;12.80;99.90;;;;;;5077797;28;19908;-76
2022/09/19 01:08:43;;;;;;;;;;;12.80;99.90;;;;;;5077675;28;19913;-75
2022/09/19 01:11:28;;;;;;;;;;;12.50;99.90;;;;;;5077421;28;19919;-77
2022/09/19 01:13:54;;;;;;;;;;;12.50;99.90;;;;;;5077704;28;20273;-75
2022/09/19 01:16:34;;;;;;;;;;;12.50;99.90;;;;;;5077350;28;19915;-76
2022/09/19 01:19:08;;;;;;;;;;;12.50;99.90;;;;;;5077474;28;20421;-76
2022/09/19 01:21:38;;;;;;;;;;;12.50;99.90;;;;;;5077314;28;19908;-77
2022/09/19 01:24:19;;;;;;;;;;;12.60;99.90;;;;;;5075905;28;19955;-75
2022/09/19 01:26:48;;;;;;;;;;;12.70;99.90;;;;;;5077246;28;20001;-75
2022/09/19 01:29:20;;;;;;;;;;;12.70;99.90;;;;;;5077090;28;20376;-76
2022/09/19 01:31:48;;;;;;;;;;;12.70;99.90;;;;;;5077222;28;19919;-77
2022/09/19 01:34:14;;;;;;;;;;;12.70;99.90;;;;;;5077222;28;19908;-77
2022/09/19 01:36:46;;;;;;;;;;;12.60;99.90;;;;;;5077108;28;20258;-76
2022/09/19 01:39:14;;;;;;;;;;;12.60;99.90;;;;;;5076939;28;20318;-75
2022/09/19 01:41:46;;;;;;;;;;;12.60;99.90;;;;;;5076879;28;19914;-76
2022/09/19 01:44:15;;;;;;;;;;;12.50;99.90;;;;;;5076982;28;19915;-76
2022/09/19 01:46:52;;;;;;;;;;;12.30;99.90;;;;;;5076852;28;19909;-76
2022/09/19 01:49:35;;;;;;;;;;;12.30;99.90;;;;;;5076866;28;19921;-76
2022/09/19 01:52:18;;;;;;;;;;;12.20;99.90;;;;;;5077415;28;19958;-74
2022/09/19 01:54:44;;;;;;;;;;;12.10;99.90;;;;;;5072196;28;19909;-76
2022/09/19 01:57:15;;;;;;;;;;;12.00;99.90;;;;;;5076585;28;19914;-75
2022/09/19 01:59:47;;;;;;;;;;;12.00;99.90;;;;;;5076567;28;19908;-75
2022/09/19 02:02:12;;;;;;;;;;;12.00;99.90;;;;;;5076685;28;20375;-74
2022/09/19 02:04:47;;;;;;;;;;;12.00;99.90;;;;;;5076561;28;19908;-77
2022/09/19 02:07:16;;;;;;;;;;;12.10;99.90;;;;;;5075637;28;20388;-75
2022/09/19 02:09:53;;;;;;;;;;;12.20;99.90;;;;;;5075147;28;19908;-75
2022/09/19 02:12:20;;;;;;;;;;;12.30;99.90;;;;;;5076607;28;19919;-75
2022/09/19 02:14:52;;;;;;;;;;;12.30;99.90;;;;;;5076344;28;19931;-75
2022/09/19 02:17:21;;;;;;;;;;;12.30;99.90;;;;;;5074763;28;19908;-76
2022/09/19 02:19:56;;;;;;;;;;;12.30;99.90;;;;;;5074945;28;19908;-74
2022/09/19 02:22:26;;;;;;;;;;;12.30;99.90;;;;;;5076480;28;19999;-76
2022/09/19 02:24:54;;;;;;;;;;;12.30;99.90;;;;;;5074888;28;20006;-77
2022/09/19 02:27:23;;;;;;;;;;;12.30;99.90;;;;;;5076112;28;19909;-75
2022/09/19 02:29:53;;;;;;;;;;;12.10;99.90;;;;;;5076041;28;20443;-76
2022/09/19 02:32:19;;;;;;;;;;;11.80;99.90;;;;;;5075897;28;19956;-75
2022/09/19 02:34:49;;;;;;;;;;;11.60;99.90;;;;;;5075953;28;20464;-75
2022/09/19 02:37:21;;;;;;;;;;;11.30;99.90;;;;;;5075893;28;20385;-75
2022/09/19 02:40:03;;;;;;;;;;;11.30;99.90;;;;;;5075878;28;19916;-75
2022/09/19 02:42:41;;;;;;;;;;;11.60;99.90;;;;;;5075966;28;19909;-76
2022/09/19 02:45:12;;;;;;;;;;;11.80;99.90;;;;;;5075768;28;19908;-76
2022/09/19 02:47:54;;;;;;;;;;;11.70;99.90;;;;;;5075534;28;19921;-73
2022/09/19 02:50:24;;;;;;;;;;;11.40;99.90;;;;;;5075568;28;19913;-75
2022/09/19 02:52:52;;;;;;;;;;;11.40;99.90;;;;;;5076836;28;20276;-74
2022/09/19 02:55:22;;;;;;;;;;;11.40;99.90;;;;;;5075562;28;19909;-76
2022/09/19 02:57:50;;;;;;;;;;;11.50;99.90;;;;;;5075490;28;20408;-74
2022/09/19 03:00:16;;;;;;;;;;;11.60;99.90;;;;;;5075426;28;20296;-76
2022/09/19 03:02:47;;;;;;;;;;;11.60;99.90;;;;;;5074061;28;19909;-77
2022/09/19 03:05:19;;;;;;;;;;;11.70;99.90;;;;;;5075478;28;20388;-75
2022/09/19 03:07:48;;;;;;;;;;;11.80;99.90;;;;;;5075340;28;19915;-76
2022/09/19 03:10:16;;;;;;;;;;;11.50;99.90;;;;;;5075374;28;19908;-77
2022/09/19 03:12:50;;;;;;;;;;;11.50;99.90;;;;;;5075207;28;19909;-75
2022/09/19 03:15:20;;;;;;;;;;;11.40;99.90;;;;;;5075377;28;19908;-74
2022/09/19 03:17:49;;;;;;;;;;;11.50;99.90;;;;;;5075079;28;19908;-76
2022/09/19 03:20:16;;;;;;;;;;;11.50;99.90;;;;;;5073713;28;19909;-75
2022/09/19 03:22:41;;;;;;;;;;;11.50;99.90;;;;;;5074976;28;19909;-76
2022/09/19 03:25:08;;;;;;;;;;;11.60;99.90;;;;;;5074924;28;19915;-75
2022/09/19 03:27:36;;;;;;;;;;;11.40;99.90;;;;;;5074885;28;19908;-74
2022/09/19 03:30:07;;;;;;;;;;;11.30;99.90;;;;;;5074809;28;19912;-75
2022/09/19 03:32:34;;;;;;;;;;;11.10;99.90;;;;;;5075144;28;19973;-76
2022/09/19 03:34:59;;;;;;;;;;;11.10;99.90;;;;;;5074776;28;19909;-75
2022/09/19 03:37:25;;;;;;;;;;;11.30;99.90;;;;;;5074795;28;19908;-75
2022/09/19 03:39:51;;;;;;;;;;;11.40;99.90;;;;;;5074657;28;19909;-75
2022/09/19 03:42:19;;;;;;;;;;;11.40;99.90;;;;;;5074863;28;20376;-76
2022/09/19 03:44:44;;;;;;;;;;;11.20;99.90;;;;;;5074503;28;19908;-76
2022/09/19 03:47:10;;;;;;;;;;;11.20;99.90;;;;;;5074531;28;19920;-74
2022/09/19 03:49:36;;;;;;;;;;;11.20;99.90;;;;;;5074552;28;19909;-75
2022/09/19 03:52:01;;;;;;;;;;;11.10;99.90;;;;;;5074300;28;19916;-75
2022/09/19 03:54:27;;;;;;;;;;;11.10;99.90;;;;;;5075204;28;19971;-74
2022/09/19 03:56:53;;;;;;;;;;;11.10;99.90;;;;;;5074343;28;19912;-74
2022/09/19 03:59:19;;;;;;;;;;;11.10;99.90;;;;;;5074462;28;19987;-76
2022/09/19 04:01:45;;;;;;;;;;;11.10;99.90;;;;;;5074199;28;19916;-75
2022/09/19 04:04:11;;;;;;;;;;;11.10;99.90;;;;;;5072969;28;19916;-76
2022/09/19 04:06:37;;;;;;;;;;;11.10;99.90;;;;;;5074319;28;20284;-74
2022/09/19 04:09:03;;;;;;;;;;;11.00;99.90;;;;;;5074217;28;19920;-76
2022/09/19 04:11:29;;;;;;;;;;;10.80;99.90;;;;;;5074060;28;20007;-75
2022/09/19 04:13:55;;;;;;;;;;;10.80;99.90;;;;;;5072752;28;20296;-75
2022/09/19 04:16:22;;;;;;;;;;;10.90;99.90;;;;;;5074044;28;19908;-76
2022/09/19 04:18:49;;;;;;;;;;;10.90;99.90;;;;;;5073974;28;19908;-75
2022/09/19 04:21:16;;;;;;;;;;;10.80;99.90;;;;;;5072684;28;19915;-75
2022/09/19 04:23:42;;;;;;;;;;;10.90;99.90;;;;;;5074361;28;19909;-75
2022/09/19 04:26:09;;;;;;;;;;;10.90;99.90;;;;;;5074040;28;20011;-75
2022/09/19 04:28:36;;;;;;;;;;;10.80;99.90;;;;;;5073973;28;19913;-76
2022/09/19 04:31:02;;;;;;;;;;;10.70;99.90;;;;;;5073353;28;20032;-75
2022/09/19 04:33:28;;;;;;;;;;;10.80;99.90;;;;;;5073771;28;20261;-75
2022/09/19 04:35:57;;;;;;;;;;;10.80;99.90;;;;;;5073788;28;19966;-76
2022/09/19 04:38:23;;;;;;;;;;;10.70;99.90;;;;;;5072440;28;19919;-76
2022/09/19 04:40:49;;;;;;;;;;;10.60;99.90;;;;;;5073984;28;20265;-75
2022/09/19 04:43:18;;;;;;;;;;;10.50;99.90;;;;;;5073736;28;19916;-76
2022/09/19 04:45:47;;;;;;;;;;;10.60;99.90;;;;;;5073583;28;20011;-74
2022/09/19 04:48:13;;;;;;;;;;;10.70;99.90;;;;;;5073572;28;20385;-76
2022/09/19 04:50:38;;;;;;;;;;;10.70;99.90;;;;;;5073678;28;20003;-74
2022/09/19 04:53:05;;;;;;;;;;;10.80;99.90;;;;;;5074284;28;19966;-75
2022/09/19 04:55:31;;;;;;;;;;;10.70;99.90;;;;;;5073596;28;19974;-75
2022/09/19 04:57:57;;;;;;;;;;;10.60;99.90;;;;;;5073915;28;19915;-76
2022/09/19 05:00:38;;;;;;;;;;;10.50;99.90;;;;;;5073611;28;20018;-74
2022/09/19 05:03:12;;;;;;;;;;;10.30;99.90;;;;;;5073532;28;20046;-76
2022/09/19 05:05:44;;;;;;;;;;;10.50;99.90;;;;;;5073731;28;19909;-75
2022/09/19 05:08:15;;;;;;;;;;;10.60;99.90;;;;;;5073645;28;19916;-75
2022/09/19 05:10:42;;;;;;;;;;;10.70;99.90;;;;;;5073547;28;20070;-76
2022/09/19 05:13:08;;;;;;;;;;;10.70;99.90;;;;;;5073585;28;19916;-76
2022/09/19 05:15:33;;;;;;;;;;;10.70;99.90;;;;;;5073390;28;19909;-75
2022/09/19 05:17:59;;;;;;;;;;;10.60;99.90;;;;;;5072106;28;19912;-75
2022/09/19 05:20:28;;;;;;;;;;;10.50;99.90;;;;;;5073422;28;20355;-75
2022/09/19 05:22:57;;;;;;;;;;;10.40;99.90;;;;;;5073374;28;19912;-76
2022/09/19 05:25:23;;;;;;;;;;;10.20;99.90;;;;;;5073301;28;20398;-74
2022/09/19 05:27:48;;;;;;;;;;;10.10;99.90;;;;;;5071953;28;19908;-75
2022/09/19 05:30:14;;;;;;;;;;;10.10;99.90;;;;;;5073202;28;19909;-76
2022/09/19 05:32:44;;;;;;;;;;;10.20;99.90;;;;;;5073501;28;19916;-75
2022/09/19 05:35:10;;;;;;;;;;;10.30;99.90;;;;;;5073478;28;19916;-74
2022/09/19 05:37:39;;;;;;;;;;;10.30;99.90;;;;;;5071902;28;20349;-75
2022/09/19 05:40:05;;;;;;;;;;;10.30;99.90;;;;;;5073164;28;19915;-76
2022/09/19 05:42:31;;;;;;;;;;;10.40;99.90;;;;;;5073176;28;20373;-75
2022/09/19 05:44:57;;;;;;;;;;;10.30;99.90;;;;;;5076866;28;19909;-75
2022/09/19 05:47:22;;;;;;;;;;;10.20;99.90;;;;;;5076521;28;20388;-76
2022/09/19 05:49:48;;;;;;;;;;;10.20;99.90;;;;;;5076918;28;19915;-76
2022/09/19 05:54:57;;;;;;;;;;;10.00;99.90;;;;;;5076934;28;19935;-75
2022/09/19 05:57:23;;;;;;;;;;;10.10;99.90;;;;;;5076605;28;19908;-75
2022/09/19 05:59:49;;;;;;;;;;;10.40;99.90;;;;;;5076574;28;20017;-76
2022/09/19 06:02:14;;;;;;;;;;;10.40;99.90;;;;;;5076547;28;19975;-76
2022/09/19 06:04:40;;;;;;;;;;;10.50;99.90;;;;;;5076489;28;19952;-76
2022/09/19 06:07:06;;;;;;;;;;;10.60;99.90;;;;;;5076466;28;20323;-74
2022/09/19 06:09:31;;;;;;;;;;;10.70;99.90;;;;;;5076748;28;19995;-75
2022/09/19 06:11:57;;;;;;;;;;;10.60;99.90;;;;;;5076575;28;19912;-76
2022/09/19 06:14:23;;;;;;;;;;;10.60;99.90;;;;;;5076323;28;20292;-76
2022/09/19 06:16:49;;;;;;;;;;;11.00;99.90;;;;;;5076364;28;19985;-76
2022/09/19 06:19:15;;;;;;;;;;;11.40;99.90;;;;;;5076181;28;19999;-77
2022/09/19 06:21:40;;;;;;;;;;;11.70;99.90;;;;;;5076208;28;19959;-75
2022/09/19 06:24:09;;;;;;;;;;;12.10;99.90;;;;;;5076074;28;19916;-76
2022/09/19 06:26:35;;;;;;;;;;;12.60;99.90;;;;;;5076057;28;20004;-77
2022/09/19 06:29:03;;;;;;;;;;;13.10;99.90;;;;;;5076078;28;20420;-76
2022/09/19 06:31:29;;;;;;;;;;;13.50;99.90;;;;;;5075950;28;19917;-75
2022/09/19 06:33:55;;;;;;;;;;;13.80;99.90;;;;;;5075972;28;20431;-75
2022/09/19 06:36:20;;;;;;;;;;;14.20;99.90;;;;;;5076148;28;19958;-74
2022/09/19 06:38:46;;;;;;;;;;;14.80;99.90;;;;;;5076010;28;19909;-76
2022/09/19 06:41:13;;;;;;;;;;;15.30;99.90;;;;;;5075846;28;19909;-76
2022/09/19 06:43:39;;;;;;;;;;;15.70;99.90;;;;;;5076278;28;19908;-76
2022/09/19 06:46:04;;;;;;;;;;;15.90;97.30;;;;;;5075698;28;20284;-75
2022/09/19 06:48:30;;;;;;;;;;;16.00;97.70;;;;;;5075369;28;19948;-76
2022/09/19 06:50:56;;;;;;;;;;;16.60;98.20;;;;;;5075525;28;20287;-76
2022/09/19 06:53:22;;;;;;;;;;;16.90;95.10;;;;;;5076009;28;20332;-74
2022/09/19 06:55:47;;;;;;;;;;;17.00;93.60;;;;;;5075870;28;19952;-76
2022/09/19 06:58:13;;;;;;;;;;;16.30;95.40;;;;;;5075498;28;20427;-76
2022/09/19 07:00:40;;;;;;;;;;;15.90;95.50;;;;;;5075609;28;19909;-75
2022/09/19 07:03:08;;;;;;;;;;;15.50;96.10;;;;;;5075423;28;19916;-76
2022/09/19 07:05:35;;;;;;;;;;;15.30;96.70;;;;;;5075366;28;19962;-76
2022/09/19 07:08:01;;;;;;;;;;;15.60;95.60;;;;;;5075624;28;20007;-76
2022/09/19 07:10:27;;;;;;;;;;;15.40;96.20;;;;;;5075221;28;19932;-77
2022/09/19 07:13:01;;;;;;;;;;;15.20;96.60;;;;;;5075374;28;19912;-75
2022/09/19 07:15:27;;;;;;;;;;;14.90;97.70;;;;;;5075469;28;19909;-75
2022/09/19 07:17:54;;;;;;;;;;;14.90;98.10;;;;;;5075189;28;20046;-75
2022/09/19 07:20:20;;;;;;;;;;;15.00;98.00;;;;;;5075252;28;19979;-75
2022/09/19 07:22:45;;;;;;;;;;;15.20;98.10;;;;;;5075060;28;20375;-76
2022/09/19 07:25:11;;;;;;;;;;;15.20;98.60;;;;;;5075032;28;19962;-76
2022/09/19 07:27:36;;;;;;;;;;;15.30;98.70;;;;;;5075332;28;19909;-76
2022/09/19 07:30:03;;;;;;;;;;;15.60;98.10;;;;;;5074918;28;19912;-76
2022/09/19 07:32:29;;;;;;;;;;;15.90;97.80;;;;;;5074689;28;19919;-77
2022/09/19 07:34:55;;;;;;;;;;;16.10;97.70;;;;;;5073462;28;20297;-76
2022/09/19 07:37:21;;;;;;;;;;;16.70;97.10;;;;;;5074761;28;19908;-76
2022/09/19 07:39:46;;;;;;;;;;;18.30;94.90;;;;;;5074686;28;19908;-75
2022/09/19 07:42:12;;;;;;;;;;;20.00;92.10;;;;;;5074780;28;20316;-76
2022/09/19 07:44:37;;;;;;;;;;;21.00;89.90;;;;;;5074517;28;19913;-76
2022/09/19 07:49:47;;;;;;;;;;;22.90;84.80;;;;;;5074443;28;19966;-78
2022/09/19 07:52:13;;;;;;;;;;;23.80;81.70;;;;;;5074429;28;19917;-77
2022/09/19 07:54:38;;;;;;;;;;;24.60;78.70;;;;;;5074988;28;19909;-77
2022/09/19 07:57:04;;;;;;;;;;;25.40;74.50;;;;;;5073109;28;19943;-77
2022/09/19 07:59:29;;;;;;;;;;;25.50;73.20;;;;;;5074944;28;19915;-77
2022/09/19 08:01:55;;;;;;;;;;;26.00;71.30;;;;;;5074294;28;19915;-77
2022/09/19 08:04:21;;;;;;;;;;;26.60;68.30;;;;;;5074055;28;19908;-77
2022/09/19 08:06:47;;;;;;;;;;;26.90;66.60;;;;;;5073901;28;19908;-77
2022/09/19 08:09:12;;;;;;;;;;;26.80;65.60;;;;;;5074258;28;20295;-76
2022/09/19 08:11:38;;;;;;;;;;;27.50;63.70;;;;;;5074037;28;20003;-78
2022/09/19 08:14:03;;;;;;;;;;;27.40;63.30;;;;;;5074467;28;19916;-77
2022/09/19 08:16:29;;;;;;;;;;;27.80;63.30;;;;;;5074345;28;19915;-78
2022/09/19 08:18:54;;;;;;;;;;;28.70;61.10;;;;;;5073993;28;19908;-78
2022/09/19 08:21:20;;;;;;;;;;;29.00;59.80;;;;;;5074031;28;19955;-78
2022/09/19 08:23:46;;;;;;;;;;;28.80;59.70;;;;;;5074046;28;19954;-76
2022/09/19 08:26:11;;;;;;;;;;;29.30;59.00;;;;;;5073916;28;20018;-74
2022/09/19 08:28:37;;;;;;;;;;;29.40;58.70;;;;;;5074011;28;20391;-75
2022/09/19 08:31:03;;;;;;;;;;;30.10;57.90;;;;;;5073769;28;19916;-75
2022/09/19 08:33:29;;;;;;;;;;;30.20;57.30;;;;;;5073871;28;19909;-75
2022/09/19 08:35:57;;;;;;;;;;;29.60;57.00;;;;;;5073780;28;19915;-76
2022/09/19 08:38:23;;;;;;;;;;;30.00;57.70;;;;;;5073990;28;20280;-75
2022/09/19 08:41:04;;;;;;;;;;;30.70;56.80;;;;;;5073761;28;19930;-76
2022/09/19 08:43:42;;;;;;;;;;;30.60;56.70;;;;;;5073837;28;19916;-76
2022/09/19 08:46:23;;;;;;;;;;;31.00;56.50;;;;;;5073623;28;20003;-77
2022/09/19 08:48:55;;;;;;;;;;;32.30;54.80;;;;;;5073342;28;19927;-75
2022/09/19 08:51:44;;;;;;;;;;;33.50;54.40;;;;;;5073619;28;20007;-75
2022/09/19 08:54:21;;;;;;;;;;;34.10;52.50;;;;;;5068520;28;19913;-75
2022/09/19 08:56:46;;;;;;;;;;;33.20;52.20;;;;;;5073904;28;20391;-76
2022/09/19 08:59:17;;;;;;;;;;;33.70;51.50;;;;;;5073592;28;19995;-76
2022/09/19 09:01:43;;;;;;;;;;;33.80;52.20;;;;;;5073459;28;20020;-76
2022/09/19 09:04:31;;;;;;;;;;;33.80;50.60;;;;;;5073496;28;19908;-77
2022/09/19 09:07:02;;;;;;;;;;;34.40;49.80;;;;;;5073421;28;19916;-77
2022/09/19 09:09:31;;;;;;;;;;;36.00;48.50;;;;;;5071881;28;20269;-76
2022/09/19 09:12:09;;;;;;;;;;;35.70;45.60;;;;;;5073354;28;19909;-76
2022/09/19 09:14:57;;;;;;;;;;;36.60;45.30;;;;;;5073622;28;19915;-77
2022/09/19 09:17:22;;;;;;;;;;;37.40;42.70;;;;;;5076440;28;20024;-77
2022/09/19 09:20:08;;;;;;;;;;;36.90;41.50;;;;;;5077463;28;20356;-75
2022/09/19 09:22:43;;;;;;;;;;;37.30;42.00;;;;;;5069712;28;19918;-76
2022/09/19 09:25:14;;;;;;;;;;;38.50;40.70;;;;;;5077603;28;19908;-77
2022/09/19 09:27:47;;;;;;;;;;;38.50;39.50;;;;;;5077313;28;19965;-77
2022/09/19 09:30:16;;;;;;;;;;;38.40;38.70;;;;;;5077207;28;19912;-76
2022/09/19 09:32:45;;;;;;;;;;;39.40;39.70;;;;;;5077309;28;19908;-76
2022/09/19 09:35:14;;;;;;;;;;;39.90;37.50;;;;;;5077240;28;20037;-78
2022/09/19 09:37:42;;;;;;;;;;;40.70;38.10;;;;;;5076994;28;20057;-75
2022/09/19 09:43:08;;;;;;;;;;;40.20;36.40;;;;;;5076831;28;19969;-78
2022/09/19 09:45:35;;;;;;;;;;;40.40;36.10;;;;;;5076889;28;20399;-77
2022/09/19 09:48:14;;;;;;;;;;;40.70;35.50;;;;;;5076657;28;19924;-78
2022/09/19 09:51:00;;;;;;;;;;;39.70;36.10;;;;;;5076781;28;19967;-76
2022/09/19 09:53:31;;;;;;;;;;;40.30;35.50;;;;;;5077291;28;19908;-77
2022/09/19 09:56:15;;;;;;;;;;;40.10;35.00;;;;;;5076658;28;19999;-76
2022/09/19 09:58:51;;;;;;;;;;;39.70;35.20;;;;;;5075640;28;20078;-77
2022/09/19 10:04:14;;;;;;;;;;;40.10;35.00;;;;;;5076273;28;20005;-75
2022/09/19 10:06:42;;;;;;;;;;;40.70;35.00;;;;;;5076710;28;19915;-78
2022/09/19 10:09:12;;;;;;;;;;;40.40;34.70;;;;;;5076570;28;19908;-75
2022/09/19 10:11:42;;;;;;;;;;;39.70;35.20;;;;;;5076515;28;20007;-77
2022/09/19 10:14:19;;;;;;;;;;;39.60;35.00;;;;;;5076751;28;19923;-77
2022/09/19 10:16:47;;;;;;;;;;;40.50;34.40;;;;;;5076718;28;19919;-78
2022/09/19 10:19:19;;;;;;;;;;;40.80;34.20;;;;;;5076308;28;19908;-77
2022/09/19 10:21:45;;;;;;;;;;;42.50;34.30;;;;;;5076426;28;19913;-78
2022/09/19 10:24:29;;;;;;;;;;;42.50;34.10;;;;;;5075952;28;19915;-75
2022/09/19 10:27:00;;;;;;;;;;;41.10;33.30;;;;;;5075892;28;19912;-79
2022/09/19 10:29:25;;;;;;;;;;;37.00;37.00;;;;;;5074986;28;19908;-76
2022/09/19 10:31:52;;;;;;;;;;;38.70;36.00;;;;;;5075331;28;20015;-77
2022/09/19 10:34:27;;;;;;;;;;;39.80;35.40;;;;;;5075502;28;20365;-78
2022/09/19 10:36:53;;;;;;;;;;;41.20;34.50;;;;;;5074658;28;19913;-78
2022/09/19 10:39:21;;;;;;;;;;;43.30;35.00;;;;;;5076085;28;20273;-78
2022/09/19 10:41:49;;;;;;;;;;;43.90;33.30;;;;;;5075990;28;20022;-78
2022/09/19 10:44:23;;;;;;;;;;;42.60;33.80;;;;;;5074460;28;19908;-78
2022/09/19 10:46:51;;;;;;;;;;;44.40;33.50;;;;;;5075758;28;19909;-76
2022/09/19 10:49:22;;;;;;;;;;;43.80;33.30;;;;;;5075896;28;20016;-77
2022/09/19 10:51:50;;;;;;;;;;;42.60;33.20;;;;;;5075889;28;19912;-76
2022/09/19 10:54:35;;;;;;;;;;;44.50;33.50;;;;;;5076190;28;19916;-77
2022/09/19 10:57:01;;;;;;;;;;;41.80;33.70;;;;;;5076053;28;19919;-77
2022/09/19 10:59:37;;;;;;;;;;;43.10;34.20;;;;;;5075528;28;19951;-78
2022/09/19 11:02:04;;;;;;;;;;;45.20;33.60;;;;;;5075444;28;19912;-78
2022/09/19 11:04:29;;;;;;;;;;;44.50;32.00;;;;;;5075425;28;19908;-77
2022/09/19 11:06:59;;;;;;;;;;;42.80;33.20;;;;;;5075411;28;19916;-77
2022/09/19 11:09:26;;;;;;;;;;;43.90;33.50;;;;;;5075489;28;19916;-78
2022/09/19 11:12:01;;;;;;;;;;;42.60;32.60;;;;;;5075336;28;19912;-76
2022/09/19 11:14:32;;;;;;;;;;;42.80;32.70;;;;;;5075551;28;19993;-77
2022/09/19 11:17:13;;;;;;;;;;;43.20;33.80;;;;;;5073848;28;19908;-77
2022/09/19 11:19:49;;;;;;;;;;;43.90;32.80;;;;;;5075204;28;19958;-76
2022/09/19 11:22:14;;;;;;;;;;;43.20;32.10;;;;;;5075131;28;19948;-77
2022/09/19 11:25:18;;;;;;;;;;;42.70;32.40;;;;;;5074938;28;19931;-76
2022/09/19 11:27:47;;;;;;;;;;;43.60;33.00;;;;;;5033248;28;20387;-78
2022/09/19 11:30:15;;;;;;;;;;;44.50;31.20;;;;;;5033033;28;20331;-78
2022/09/19 11:32:59;;;;;;;;;;;43.90;31.60;;;;;;5053613;28;19913;-78
2022/09/19 11:35:25;;;;;;;;;;;44.10;32.10;;;;;;5073316;28;19915;-78
2022/09/19 11:38:15;;;;;;;;;;;42.80;31.70;;;;;;5075031;28;20011;-78
2022/09/19 11:40:59;;;;;;;;;;;41.70;32.10;;;;;;5073512;28;19947;-78
2022/09/19 11:43:44;;;;;;;;;;;40.90;34.30;;;;;;5074790;28;20280;-76
2022/09/19 11:46:19;;;;;;;;;;;40.60;34.10;;;;;;5073251;28;19908;-78
2022/09/19 11:48:54;;;;;;;;;;;42.90;33.20;;;;;;5073009;28;19921;-77
2022/09/19 11:51:40;;;;;;;;;;;44.30;31.90;;;;;;5074678;28;19919;-79
2022/09/19 11:54:14;;;;;;;;;;;46.10;31.00;;;;;;5074527;28;19908;-78
2022/09/19 11:56:39;;;;;;;;;;;42.50;30.40;;;;;;5074406;28;20249;-76
2022/09/19 11:59:05;;;;;;;;;;;36.30;34.30;;;;;;5074385;28;19935;-75
2022/09/19 12:01:46;;;;;;;;;;;33.90;37.30;;;;;;5074425;28;20419;-75
2022/09/19 12:04:27;;;;;;;;;;;36.00;37.50;;;;;;5072801;28;20338;-78
2022/09/19 12:07:13;;;;;;;;;;;40.80;32.30;;;;;;5074211;28;20285;-76
2022/09/19 12:09:44;;;;;;;;;;;37.50;33.10;;;;;;5066797;28;19908;-74
2022/09/19 12:12:11;;;;;;;;;;;33.60;35.80;;;;;;5073980;28;20000;-75
2022/09/19 12:15:03;;;;;;;;;;;31.10;37.70;;;;;;5074134;28;20285;-75
2022/09/19 12:17:32;;;;;;;;;;;30.10;39.30;;;;;;5057994;28;19912;-75
2022/09/19 12:20:00;;;;;;;;;;;36.50;36.20;;;;;;5074034;28;19912;-76
2022/09/19 12:22:31;;;;;;;;;;;38.30;32.50;;;;;;5073940;28;19908;-74
2022/09/19 12:25:02;;;;;;;;;;;33.90;34.60;;;;;;5073950;28;19941;-74
2022/09/19 12:28:05;;;;;;;;;;;32.50;39.30;;;;;;5073944;28;19932;-75
2022/09/19 12:30:40;;;;;;;;;;;30.60;39.20;;;;;;5031856;28;19909;-75
2022/09/19 12:33:13;;;;;;;;;;;32.30;39.10;;;;;;5068168;28;19908;-74
2022/09/19 12:35:58;;;;;;;;;;;30.70;39.00;;;;;;5074051;28;19909;-77
2022/09/19 12:38:27;;;;;;;;;;;29.30;40.60;;;;;;5073887;28;19908;-78
2022/09/19 12:41:07;;;;;;;;;;;28.60;42.00;;;;;;5073677;28;20273;-77
2022/09/19 12:43:51;;;;;;;;;;;28.60;42.30;;;;;;5074296;28;19932;-77
2022/09/19 12:46:34;;;;;;;;;;;37.80;36.30;;;;;;5073665;28;19951;-76
2022/09/19 12:49:03;;;;;;;;;;;36.10;34.00;;;;;;5073579;28;19921;-76
2022/09/19 12:51:41;;;;;;;;;;;31.90;37.50;;;;;;5073424;28;20347;-75
2022/09/19 12:54:14;;;;;;;;;;;29.70;40.20;;;;;;5074140;28;19938;-75
2022/09/19 12:56:42;;;;;;;;;;;28.80;41.40;;;;;;5072297;28;19991;-76
2022/09/19 12:59:15;;;;;;;;;;;33.90;39.50;;;;;;5073458;28;19962;-77
2022/09/19 13:01:45;;;;;;;;;;;40.70;34.60;;;;;;5073704;28;19912;-75
2022/09/19 13:04:13;;;;;;;;;;;45.30;32.70;;;;;;5072290;28;19909;-77
2022/09/19 13:06:41;;;;;;;;;;;47.00;30.30;;;;;;5072241;28;19908;-77
2022/09/19 13:09:13;;;;;;;;;;;47.50;30.10;;;;;;5073510;28;19923;-77
2022/09/19 13:11:45;;;;;;;;;;;48.50;29.50;;;;;;5073834;28;19955;-76
2022/09/19 13:14:23;;;;;;;;;;;49.60;28.90;;;;;;5073423;28;19940;-76
2022/09/19 13:25:17;;;;;;;;;;;37.60;34.70;;;;;;5073058;28;20339;-75
2022/09/19 13:27:46;;;;;;;;;;;37.20;31.90;;;;;;5073650;28;19952;-76
2022/09/19 13:30:30;;;;;;;;;;;39.00;32.90;;;;;;5073408;28;19915;-77
2022/09/19 13:32:57;;;;;;;;;;;42.10;31.40;;;;;;5071929;28;19948;-76
2022/09/19 13:35:24;;;;;;;;;;;45.90;30.40;;;;;;5073254;28;19912;-77
2022/09/19 13:37:52;;;;;;;;;;;45.80;29.80;;;;;;5073259;28;19908;-77
2022/09/19 13:40:27;;;;;;;;;;;45.80;29.80;;;;;;5073199;28;20385;-75
2022/09/19 13:43:11;;;;;;;;;;;46.50;29.60;;;;;;5073153;28;19977;-75
2022/09/19 13:45:56;;;;;;;;;;;46.30;29.40;;;;;;5073065;28;20442;-77
2022/09/19 13:48:24;;;;;;;;;;;46.50;29.20;;;;;;5071546;28;19970;-75
2022/09/19 13:51:00;;;;;;;;;;;46.80;29.50;;;;;;5073049;28;19909;-76
2022/09/19 13:53:35;;;;;;;;;;;46.60;29.20;;;;;;5073069;28;19913;-77
2022/09/19 13:56:04;;;;;;;;;;;49.20;29.20;;;;;;5073589;28;19958;-77
2022/09/19 13:58:32;;;;;;;;;;;48.70;28.50;;;;;;5071710;28;19909;-76
2022/09/19 14:01:09;;;;;;;;;;;47.60;28.20;;;;;;5073514;28;19913;-77
2022/09/19 14:03:46;;;;;;;;;;;46.80;28.60;;;;;;5074304;28;19908;-77
2022/09/19 14:06:26;;;;;;;;;;;44.90;29.30;;;;;;5076491;28;19909;-77
2022/09/19 14:09:10;;;;;;;;;;;45.50;29.60;;;;;;5076613;28;19908;-74
2022/09/19 14:11:35;;;;;;;;;;;44.00;29.20;;;;;;5076517;28;19912;-75
2022/09/19 14:14:21;;;;;;;;;;;42.70;29.80;;;;;;5076500;28;20327;-76
2022/09/19 14:17:07;;;;;;;;;;;41.50;29.30;;;;;;5076382;28;19957;-76
2022/09/19 14:19:44;;;;;;;;;;;43.60;29.90;;;;;;5076263;28;20000;-76
2022/09/19 14:22:28;;;;;;;;;;;38.50;30.00;;;;;;5076571;28;20018;-74
2022/09/19 14:25:02;;;;;;;;;;;34.20;33.40;;;;;;5076117;28;19908;-74
2022/09/19 14:27:31;;;;;;;;;;;32.70;34.90;;;;;;5076184;28;19908;-76
2022/09/19 14:30:06;;;;;;;;;;;32.20;35.60;;;;;;5076054;28;20361;-75
2022/09/19 14:32:47;;;;;;;;;;;32.30;35.50;;;;;;5076495;28;19915;-74
2022/09/19 14:35:31;;;;;;;;;;;31.00;36.40;;;;;;5076256;28;19997;-74
2022/09/19 14:38:17;;;;;;;;;;;30.00;37.50;;;;;;5075942;28;19916;-74
2022/09/19 14:40:50;;;;;;;;;;;28.90;38.90;;;;;;5075816;28;19966;-74
2022/09/19 14:43:31;;;;;;;;;;;27.90;40.50;;;;;;5076082;28;19908;-75
2022/09/19 14:46:20;;;;;;;;;;;30.70;40.30;;;;;;5075680;28;19909;-75
2022/09/19 14:48:53;;;;;;;;;;;35.20;35.30;;;;;;5075467;28;19952;-75
2022/09/19 14:51:37;;;;;;;;;;;38.00;33.40;;;;;;5075864;28;19915;-74
2022/09/19 14:54:06;;;;;;;;;;;39.00;31.50;;;;;;5075955;28;19913;-75
2022/09/19 14:56:31;;;;;;;;;;;38.80;31.70;;;;;;5075612;28;19912;-76
2022/09/19 14:58:59;;;;;;;;;;;39.70;31.70;;;;;;5075646;28;19916;-76